Groton, NY

1:22 AM EST on February 10, 2016 (GMT -0500)
Millbrook Farms | | Change Station
CLOSE
Current Station
Personal Weather Station
Location: Freeville, NY
Elevation: 1430 ft
Nearby Weather Stations

Elev 1430 ft 42.56 °N, 76.32 °W | Updated 2 minutes ago

Overcast
Overcast
29.5 °F
Feels Like 30 °F
N
0.0
Wind Variable Wind from WSW
Gusts 0.0 mph

Today
High -- | Low -- °F
--% Chance of Precip.
Yesterday
High -- | Low -- °F
Precip. -- in
Pressure 29.55 in
Visibility 5.0 miles
Clouds Few 1500 ft
Mostly Cloudy 3900 ft
Overcast 4600 ft
Windchill 30 °F
Dew Point 28 °F
Humidity 95%
Rainfall 0.00 in
Snow Depth Not available.
7:09 AM 5:30 PM
Waxing Crescent, 4% visible
METAR KITH 100556Z AUTO 17003KT 5SM BR FEW015 BKN039 OVC046 M02/M03 A2952 RMK AO2 SLP005 60009 T10221028 11006 21033 56005
Pressure 29.55 in
Visibility 5.0 miles
Clouds Few 1500 ft
Mostly Cloudy 3900 ft
Overcast 4600 ft
Windchill 30 °F
Dew Point 28 °F
Humidity 95%
Rainfall 0.00 in
Snow Depth Not available.
7:09 AM 5:30 PM
Waxing Crescent, 4% visible
METAR KITH 100556Z AUTO 17003KT 5SM BR FEW015 BKN039 OVC046 M02/M03 A2952 RMK AO2 SLP005 60009 T10221028 11006 21033 56005

10-Day Weather Forecast

Almanac

Astronomy

Feb. 10, 2016 Rise Set
Actual Time
Civil Twilight
Nautical Twilight
Astronomical Twilight
Moon
Length of Visible Light
Length of Day
Tomorrow will be .
, % of the Moon is Illuminated

Today's Extremes

State Highs State Lows

Community

WunderPhotos

Upload Photos

1,891,826 photos uploaded!

WunderBlog® & News

Nearby

Air Quality

  Air Quality AQ Index Pollutant
Not available.

Snow Depth

Station Depth Elevation

Earthquake Activity

City Distance Mag. Time & Date
Minimum magnitude displayed is 2.5.

Coastal Water Temperatures

Place Temperature

Stations

Nearby Weather Stations

Station Location Temp. Windchill Dew Point Humidity Wind Precip. Elev Updated Type
                   

Watches & Warnings

There are currently no watches in effect.